Time;durP1;ratioP1;P1;durP2;ratioP2;P2;SDS_P1;SDS_P2;PMS_P1;PMS_P2;Temp;Humidity;BMP_temperature;BMP_pressure;BME280_temperature;BME280_humidity;BME280_pressure;Samples;Min_cycle;Max_cycle;Signal;HPM_P1;HPM_P2
2022/09/28 00:00:20;;;;;;;131.32;10.23;;;7.00;99.90;;;;;;4863456;29;20055;-82
2022/09/28 00:02:45;;;;;;;15.30;4.40;;;7.10;99.90;;;;;;4859441;29;20053;-83
2022/09/28 00:05:11;;;;;;;24.90;4.90;;;7.20;99.90;;;;;;4862307;29;20045;-83
2022/09/28 00:07:37;;;;;;;6.15;5.00;;;7.10;99.90;;;;;;4850536;29;20056;-82
2022/09/28 00:10:03;;;;;;;7.13;5.00;;;7.20;99.90;;;;;;4845053;29;20068;-83
2022/09/28 00:12:30;;;;;;;7.60;5.07;;;7.10;99.90;;;;;;4877722;29;20068;-83
2022/09/28 00:14:55;;;;;;;8.80;5.43;;;7.20;99.90;;;;;;4880435;29;20037;-82
2022/09/28 00:17:22;;;;;;;7.60;5.07;;;7.20;99.90;;;;;;4879757;29;20049;-83
2022/09/28 00:19:48;;;;;;;8.57;5.30;;;7.10;99.90;;;;;;4881821;29;20086;-83
2022/09/28 00:22:14;;;;;;;9.38;5.90;;;7.10;99.90;;;;;;4850320;29;20069;-82
2022/09/28 00:24:40;;;;;;;8.32;5.80;;;7.00;99.90;;;;;;4851875;29;20052;-82
2022/09/28 00:27:06;;;;;;;8.40;5.88;;;7.10;99.90;;;;;;4881079;29;20037;-83
2022/09/28 00:29:36;;;;;;;7.40;5.18;;;7.20;99.90;;;;;;4851624;29;20033;-83
2022/09/28 00:32:04;;;;;;;8.68;4.93;;;7.10;99.90;;;;;;4863659;29;20052;-83
2022/09/28 00:34:33;;;;;;;7.18;5.38;;;7.20;99.90;;;;;;4849163;29;20858;-83
2022/09/28 00:37:00;;;;;;;6.60;5.55;;;7.10;99.90;;;;;;4849810;29;20041;-83
2022/09/28 00:39:26;;;;;;;7.70;5.72;;;7.10;99.90;;;;;;4864144;29;20044;-83
2022/09/28 00:41:53;;;;;;;9.13;6.75;;;7.30;99.90;;;;;;4862753;29;20409;-83
2022/09/28 00:44:37;;;;;;;10.75;4.25;;;7.20;99.90;;;;;;4884493;29;20079;-83
2022/09/28 00:47:27;;;;;;;9.18;4.68;;;7.10;99.90;;;;;;4865785;29;20404;-83
2022/09/28 00:50:17;;;;;;;6.95;5.47;;;7.20;99.90;;;;;;4840865;29;20059;-83
2022/09/28 00:53:01;;;;;;;7.47;4.88;;;7.20;99.90;;;;;;4866720;29;20175;-83
2022/09/28 00:55:44;;;;;;;7.32;6.15;;;7.40;99.90;;;;;;4828808;29;20053;-84
2022/09/28 00:58:15;;;;;;;9.02;5.93;;;7.40;99.90;;;;;;4845913;29;20124;-83
2022/09/28 01:00:41;;;;;;;7.53;5.60;;;7.40;99.90;;;;;;4832372;29;20041;-83
2022/09/28 01:03:07;;;;;;;7.00;5.35;;;7.30;99.90;;;;;;4830090;29;20097;-83
2022/09/28 01:05:34;;;;;;;9.88;5.53;;;7.50;99.90;;;;;;4848062;29;20052;-83
2022/09/28 01:08:01;;;;;;;8.43;6.00;;;7.40;99.90;;;;;;4846578;29;20049;-83
2022/09/28 01:10:29;;;;;;;9.25;6.25;;;7.50;99.90;;;;;;4829376;29;20033;-83
2022/09/28 01:12:56;;;;;;;8.35;6.15;;;7.50;99.90;;;;;;4847995;29;20414;-83
2022/09/28 01:15:25;;;;;;;7.97;5.85;;;7.40;99.90;;;;;;4830332;29;20038;-83
2022/09/28 01:18:12;;;;;;;8.52;6.30;;;7.50;99.90;;;;;;4831969;29;20354;-83
2022/09/28 01:20:55;;;;;;;7.35;5.68;;;7.40;99.90;;;;;;4830990;29;20688;-83
2022/09/28 01:23:47;;;;;;;12.15;6.50;;;7.30;99.90;;;;;;4814214;29;20412;-82
2022/09/28 01:26:44;;;;;;;8.45;6.15;;;7.30;99.90;;;;;;4827023;29;20101;-83
2022/09/28 01:29:40;;;;;;;9.20;6.18;;;7.20;99.90;;;;;;4847381;29;20140;-83
2022/09/28 01:32:15;;;;;;;8.73;6.95;;;7.30;99.90;;;;;;4842552;29;20045;-83
2022/09/28 01:34:53;;;;;;;;;;;7.20;99.90;;;;;;4849378;29;20041;-83
2022/09/28 01:37:24;;;;;;;9.98;6.40;;;7.10;99.90;;;;;;4830338;29;20160;-83
2022/09/28 01:39:52;;;;;;;8.20;6.35;;;7.30;99.90;;;;;;4829232;29;20417;-83
2022/09/28 01:42:28;;;;;;;10.20;6.80;;;7.10;99.90;;;;;;4846936;29;20109;-83
2022/09/28 01:44:59;;;;;;;8.63;6.40;;;7.00;99.90;;;;;;4833324;29;20069;-83
2022/09/28 01:47:26;;;;;;;12.43;7.05;;;7.10;99.90;;;;;;4834570;29;20046;-83
2022/09/28 01:49:59;;;;;;;8.88;6.20;;;7.10;99.90;;;;;;4827857;29;20042;-82
2022/09/28 01:52:35;;;;;;;10.88;6.85;;;6.90;99.90;;;;;;4822882;29;20061;-82
2022/09/28 01:55:12;;;;;;;10.50;6.80;;;7.00;99.90;;;;;;4814313;29;20366;-82
2022/09/28 01:57:48;;;;;;;97.88;9.15;;;6.90;99.90;;;;;;4837653;29;20152;-83
2022/09/28 02:00:16;;;;;;;36.03;6.93;;;6.60;99.90;;;;;;4846497;29;20513;-83
2022/09/28 02:02:55;;;;;;;13.00;7.00;;;6.70;99.90;;;;;;4827125;29;20041;-82
2022/09/28 02:05:33;;;;;;;302.58;22.25;;;6.70;99.90;;;;;;4844847;29;20425;-82
2022/09/28 02:08:20;;;;;;;318.33;20.40;;;6.50;99.90;;;;;;4828581;29;20052;-82
2022/09/28 02:11:14;;;;;;;90.78;11.13;;;6.60;99.90;;;;;;4831754;29;20051;-83
2022/09/28 02:13:50;;;;;;;69.47;7.93;;;6.70;99.90;;;;;;4828363;29;20121;-83
2022/09/28 02:16:38;;;;;;;44.17;8.18;;;6.70;99.90;;;;;;4828248;29;20109;-83
2022/09/28 02:19:05;;;;;;;39.00;7.40;;;6.80;99.90;;;;;;4845286;29;20309;-82
2022/09/28 02:21:54;;;;;;;33.10;6.28;;;6.80;99.90;;;;;;4845783;29;20078;-83
2022/09/28 02:24:32;;;;;;;9.82;4.82;;;7.00;99.90;;;;;;4842641;29;20124;-83
2022/09/28 02:27:03;;;;;;;145.57;15.07;;;6.90;99.90;;;;;;4844131;29;20470;-83
2022/09/28 02:29:28;;;;;;;156.52;17.45;;;6.90;99.90;;;;;;4845350;29;20037;-83
2022/09/28 02:31:54;;;;;;;51.88;8.45;;;6.90;99.90;;;;;;4843527;29;20039;-83
2022/09/28 02:34:20;;;;;;;18.05;6.50;;;7.00;99.90;;;;;;4829717;29;20046;-82
2022/09/28 02:36:46;;;;;;;22.50;5.97;;;7.00;99.90;;;;;;4849759;29;20417;-83
2022/09/28 02:39:13;;;;;;;32.17;6.93;;;7.00;99.90;;;;;;4830150;29;20513;-82
2022/09/28 02:41:51;;;;;;;77.05;10.40;;;7.20;99.90;;;;;;4841517;29;20140;-82
2022/09/28 02:44:17;;;;;;;33.97;8.13;;;7.20;99.90;;;;;;4830431;29;20046;-83
2022/09/28 02:47:21;;;;;;;26.55;7.85;;;7.20;99.90;;;;;;4841474;29;20097;-83
2022/09/28 02:50:21;;;;;;;24.90;10.55;;;7.20;99.90;;;;;;4842563;29;20113;-83
2022/09/28 02:52:59;;;;;;;60.83;13.07;;;7.40;99.90;;;;;;4829308;29;20212;-83
2022/09/28 02:56:06;;;;;;;141.52;16.33;;;7.40;99.90;;;;;;4842411;29;20056;-83
2022/09/28 02:58:59;;;;;;;80.78;13.30;;;7.50;99.90;;;;;;4831533;29;20363;-83
2022/09/28 03:01:36;;;;;;;84.60;16.73;;;7.50;99.90;;;;;;4810964;29;20541;-83
2022/09/28 03:04:21;;;;;;;35.75;11.93;;;7.50;99.90;;;;;;4859589;29;20451;-83
2022/09/28 03:06:59;;;;;;;124.70;18.27;;;7.60;99.90;;;;;;4862527;29;20045;-83
2022/09/28 03:09:36;;;;;;;64.97;12.68;;;7.50;99.90;;;;;;4842346;29;20043;-83
2022/09/28 03:12:09;;;;;;;37.17;12.50;;;7.60;99.90;;;;;;4826527;29;20120;-83
2022/09/28 03:14:35;;;;;;;50.58;14.07;;;7.60;99.90;;;;;;4828637;29;20136;-83
2022/09/28 03:17:01;;;;;;;74.90;14.38;;;7.60;99.90;;;;;;4827101;29;20049;-83
2022/09/28 03:19:30;;;;;;;68.55;13.60;;;7.60;99.90;;;;;;4829299;29;20310;-83
2022/09/28 03:21:57;;;;;;;23.20;10.98;;;7.60;99.90;;;;;;4827451;29;20055;-83
2022/09/28 03:24:23;;;;;;;61.78;14.60;;;7.60;99.90;;;;;;4833384;29;20135;-83
2022/09/28 03:26:48;;;;;;;69.90;15.23;;;7.50;99.90;;;;;;4827966;29;20596;-83
2022/09/28 03:29:19;;;;;;;56.30;14.82;;;7.60;99.90;;;;;;4843045;29;20510;-83
2022/09/28 03:31:45;;;;;;;106.95;16.63;;;7.50;99.90;;;;;;4830327;29;20038;-83
2022/09/28 03:34:11;;;;;;;115.80;18.23;;;7.60;99.90;;;;;;4829955;29;20068;-83
2022/09/28 03:36:36;;;;;;;35.33;12.80;;;7.70;99.90;;;;;;4828339;29;20490;-83
2022/09/28 03:39:03;;;;;;;97.65;15.77;;;7.60;99.90;;;;;;4840491;29;20048;-83
2022/09/28 03:41:29;;;;;;;46.80;13.32;;;7.60;99.90;;;;;;4826523;29;20053;-83
2022/09/28 03:43:55;;;;;;;79.32;18.80;;;7.50;99.90;;;;;;4859250;29;20412;-83
2022/09/28 03:46:21;;;;;;;65.20;14.50;;;7.50;99.90;;;;;;4830000;29;20458;-83
2022/09/28 03:48:46;;;;;;;46.65;15.23;;;7.50;99.90;;;;;;4829113;29;20415;-83
2022/09/28 03:51:13;;;;;;;66.82;16.63;;;7.50;99.90;;;;;;4827938;29;20551;-83
2022/09/28 03:53:39;;;;;;;72.22;15.43;;;7.60;99.90;;;;;;4816569;29;20554;-83
2022/09/28 03:56:09;;;;;;;71.30;14.25;;;7.60;99.90;;;;;;4828584;29;20136;-83
2022/09/28 03:58:38;;;;;;;93.00;14.48;;;7.60;99.90;;;;;;4851324;29;20079;-83
2022/09/28 04:01:06;;;;;;;93.75;16.48;;;7.50;99.90;;;;;;4850109;29;20546;-83
2022/09/28 04:03:32;;;;;;;82.72;14.20;;;7.40;99.90;;;;;;4832869;29;20040;-83
2022/09/28 04:05:58;;;;;;;72.03;12.23;;;7.40;99.90;;;;;;4848772;29;20393;-83
2022/09/28 04:08:24;;;;;;;54.90;13.15;;;7.30;99.90;;;;;;4832816;29;20046;-82
2022/09/28 04:10:50;;;;;;;97.97;14.52;;;7.50;99.90;;;;;;4847051;29;20101;-83
2022/09/28 04:13:15;;;;;;;80.55;16.35;;;7.40;99.90;;;;;;4859000;29;20033;-83
2022/09/28 04:15:42;;;;;;;79.47;13.25;;;7.30;99.90;;;;;;4832057;29;20489;-83
2022/09/28 04:18:12;;;;;;;49.58;13.60;;;7.30;99.90;;;;;;4829850;29;20049;-83
2022/09/28 04:20:44;;;;;;;70.45;12.80;;;7.20;99.90;;;;;;4822672;29;20045;-83
2022/09/28 04:23:09;;;;;;;40.33;11.73;;;7.20;99.90;;;;;;4846881;29;20037;-83
2022/09/28 04:25:35;;;;;;;30.48;9.77;;;7.30;99.90;;;;;;4864255;29;20047;-83
2022/09/28 04:30:48;;;;;;;41.55;11.57;;;7.20;99.90;;;;;;4850530;29;20138;-82
2022/09/28 04:33:14;;;;;;;59.45;13.18;;;7.00;99.90;;;;;;4836402;29;20130;-83
2022/09/28 04:35:40;;;;;;;48.22;11.52;;;7.10;99.90;;;;;;4837176;29;20129;-83
2022/09/28 04:38:06;;;;;;;51.50;13.13;;;7.00;99.90;;;;;;4831505;29;20053;-83
2022/09/28 04:40:31;;;;;;;34.70;10.20;;;6.90;99.90;;;;;;4830996;29;20352;-83
2022/09/28 04:42:57;;;;;;;47.30;13.48;;;7.00;99.90;;;;;;4831918;29;20049;-84
2022/09/28 04:45:25;;;;;;;19.30;10.13;;;7.00;99.90;;;;;;4862040;29;20046;-83
2022/09/28 04:47:51;;;;;;;18.20;9.27;;;6.90;99.90;;;;;;4846263;29;20501;-83
2022/09/28 04:50:17;;;;;;;13.73;9.98;;;6.90;99.90;;;;;;4832960;29;20033;-83
2022/09/28 04:52:45;;;;;;;33.90;13.07;;;6.80;99.90;;;;;;4843347;29;20161;-83
2022/09/28 04:55:15;;;;;;;25.63;11.55;;;7.00;99.90;;;;;;4866623;29;20037;-83
2022/09/28 04:57:41;;;;;;;56.30;15.82;;;6.90;99.90;;;;;;4866163;29;20051;-83
2022/09/28 05:00:09;;;;;;;18.80;11.38;;;6.90;99.90;;;;;;4851637;29;20068;-83
2022/09/28 05:02:35;;;;;;;42.85;14.65;;;6.80;99.90;;;;;;4867694;29;20048;-83
2022/09/28 05:05:01;;;;;;;22.42;11.23;;;7.00;99.90;;;;;;4866390;29;20442;-83
2022/09/28 05:07:26;;;;;;;19.17;9.82;;;7.00;99.90;;;;;;4834727;29;20041;-83
2022/09/28 05:09:54;;;;;;;19.58;10.18;;;6.90;99.90;;;;;;4850152;29;20048;-83
2022/09/28 05:12:20;;;;;;;20.08;10.98;;;7.00;99.90;;;;;;4853215;29;20064;-83
2022/09/28 05:14:46;;;;;;;22.80;10.60;;;7.00;99.90;;;;;;4851749;29;20040;-83
2022/09/28 05:17:11;;;;;;;37.30;12.60;;;7.00;99.90;;;;;;4862967;29;20401;-83
2022/09/28 05:19:37;;;;;;;46.83;12.30;;;7.10;99.90;;;;;;4850184;29;20056;-83
2022/09/28 05:22:10;;;;;;;40.90;14.02;;;7.00;99.90;;;;;;4855257;29;20044;-83
2022/09/28 05:24:35;;;;;;;38.90;13.13;;;7.20;99.90;;;;;;4865313;29;20045;-83
2022/09/28 05:27:01;;;;;;;52.65;14.88;;;7.20;99.90;;;;;;4850796;29;20121;-83
2022/09/28 05:29:29;;;;;;;91.82;18.02;;;7.20;99.90;;;;;;4854187;29;20456;-83
2022/09/28 05:31:55;;;;;;;47.38;12.60;;;7.10;99.90;;;;;;4850703;29;20051;-83
2022/09/28 05:34:20;;;;;;;35.38;12.95;;;7.20;99.90;;;;;;4852488;29;20579;-82
2022/09/28 05:36:46;;;;;;;34.65;12.07;;;7.10;99.90;;;;;;4829543;29;20048;-83
2022/09/28 05:39:12;;;;;;;22.92;10.90;;;7.10;99.90;;;;;;4865497;29;20037;-83
2022/09/28 05:41:37;;;;;;;32.70;11.27;;;7.10;99.90;;;;;;4847520;29;20120;-83
2022/09/28 05:44:03;;;;;;;43.90;14.05;;;7.10;99.90;;;;;;4848579;29;20077;-83
2022/09/28 05:46:29;;;;;;;42.95;12.50;;;7.10;99.90;;;;;;4848355;29;20076;-83
2022/09/28 05:48:54;;;;;;;42.28;13.10;;;7.30;99.90;;;;;;4848675;29;20460;-83
2022/09/28 05:51:20;;;;;;;45.47;12.75;;;7.30;99.90;;;;;;4864788;29;20049;-83
2022/09/28 05:53:46;;;;;;;29.80;13.25;;;7.20;99.90;;;;;;4816038;29;20161;-83
2022/09/28 05:56:11;;;;;;;29.65;11.27;;;7.30;99.90;;;;;;4842480;29;20367;-83
2022/09/28 05:58:37;;;;;;;48.53;12.50;;;7.30;99.90;;;;;;4816538;29;20116;-83
2022/09/28 06:01:03;;;;;;;50.15;13.00;;;7.30;99.90;;;;;;4844516;29;20448;-82
2022/09/28 06:03:28;;;;;;;42.90;13.38;;;7.20;99.90;;;;;;4846714;29;20049;-83
2022/09/28 06:05:54;;;;;;;50.58;14.68;;;7.20;99.90;;;;;;4813744;29;20045;-83
2022/09/28 06:08:20;;;;;;;32.97;12.23;;;7.30;99.90;;;;;;4846657;29;20105;-83
2022/09/28 06:10:45;;;;;;;29.27;11.73;;;7.30;99.90;;;;;;4813866;29;20490;-83
2022/09/28 06:13:11;;;;;;;28.88;11.38;;;7.30;99.90;;;;;;4846648;29;20090;-83
2022/09/28 06:15:37;;;;;;;40.80;11.80;;;7.20;99.90;;;;;;4828296;29;20117;-83
2022/09/28 06:18:05;;;;;;;29.95;10.40;;;7.20;99.90;;;;;;4828485;29;20041;-83
2022/09/28 06:20:38;;;;;;;23.88;10.63;;;7.30;99.90;;;;;;4850632;29;20170;-83
2022/09/28 06:23:04;;;;;;;24.15;11.05;;;7.40;99.90;;;;;;4828861;29;20311;-83
2022/09/28 06:25:29;;;;;;;71.75;12.60;;;7.40;99.90;;;;;;4846427;29;20231;-83
2022/09/28 06:27:59;;;;;;;51.70;13.15;;;7.30;99.90;;;;;;4844512;29;20049;-83
2022/09/28 06:30:26;;;;;;;39.05;11.43;;;7.60;99.90;;;;;;4845031;29;20151;-83
2022/09/28 06:32:56;;;;;;;36.83;11.32;;;7.60;99.90;;;;;;4845419;29;20598;-83
2022/09/28 06:35:24;;;;;;;35.78;11.15;;;7.70;99.90;;;;;;4830394;29;20088;-83
2022/09/28 06:37:50;;;;;;;28.08;11.07;;;7.80;99.90;;;;;;4816786;29;20045;-83
2022/09/28 06:40:17;;;;;;;36.45;12.45;;;7.90;99.90;;;;;;4833359;29;20542;-83
2022/09/28 06:42:43;;;;;;;17.67;11.68;;;8.00;99.90;;;;;;4865177;29;20453;-83
2022/09/28 06:45:09;;;;;;;20.00;10.02;;;8.10;99.90;;;;;;4834217;29;20049;-83
2022/09/28 06:47:36;;;;;;;19.65;11.00;;;8.30;99.90;;;;;;4834433;29;20045;-83
2022/09/28 06:50:11;;;;;;;20.67;11.43;;;8.40;99.90;;;;;;4835347;29;20505;-83
2022/09/28 06:52:36;;;;;;;28.00;12.50;;;8.60;99.90;;;;;;4833831;29;20070;-83
2022/09/28 06:55:02;;;;;;;21.05;11.23;;;8.60;99.90;;;;;;4832855;29;20045;-83
2022/09/28 06:57:28;;;;;;;14.35;10.27;;;8.60;99.90;;;;;;4828327;29;20186;-84
2022/09/28 06:59:53;;;;;;;15.27;10.60;;;8.70;99.90;;;;;;4817469;29;20136;-83
2022/09/28 07:02:22;;;;;;;18.27;10.98;;;8.70;99.90;;;;;;4827854;29;20103;-83
2022/09/28 07:04:47;;;;;;;13.88;9.52;;;8.80;99.90;;;;;;4826469;29;20096;-83
2022/09/28 07:07:13;;;;;;;15.73;10.15;;;8.80;99.90;;;;;;4848238;29;20060;-83
2022/09/28 07:09:39;;;;;;;20.13;10.77;;;9.00;99.90;;;;;;4832428;29;20101;-83
2022/09/28 07:12:05;;;;;;;14.50;9.95;;;8.90;99.90;;;;;;4817693;29;20402;-83
2022/09/28 07:14:33;;;;;;;12.90;9.85;;;8.90;99.90;;;;;;4848957;29;20322;-83
2022/09/28 07:16:59;;;;;;;12.52;9.43;;;9.10;99.90;;;;;;4845330;29;20287;-83
2022/09/28 07:19:26;;;;;;;18.60;10.05;;;9.20;99.90;;;;;;4831225;29;20598;-83
2022/09/28 07:21:51;;;;;;;17.23;10.13;;;9.20;99.90;;;;;;4830498;29;20129;-83
2022/09/28 07:24:18;;;;;;;15.32;9.73;;;9.10;99.90;;;;;;4843460;29;20125;-83
2022/09/28 07:26:44;;;;;;;29.60;11.32;;;9.40;99.90;;;;;;4813499;29;20060;-83
2022/09/28 07:29:11;;;;;;;18.25;9.95;;;9.60;99.90;;;;;;4836038;29;20060;-83
2022/09/28 07:31:38;;;;;;;18.35;10.60;;;9.60;99.90;;;;;;4827686;29;20121;-83
2022/09/28 07:34:03;;;;;;;35.72;11.43;;;9.80;99.90;;;;;;4847032;29;20045;-84
2022/09/28 07:36:30;;;;;;;19.58;10.00;;;9.60;99.90;;;;;;4831440;29;20045;-83
2022/09/28 07:38:56;;;;;;;37.83;11.27;;;9.80;99.90;;;;;;4832239;29;20494;-83
2022/09/28 07:41:31;;;;;;;49.55;11.90;;;9.80;99.90;;;;;;4845357;29;20092;-84
2022/09/28 07:44:06;;;;;;;37.72;9.27;;;9.70;99.90;;;;;;4830025;29;20084;-83
2022/09/28 07:46:35;;;;;;;28.00;8.82;;;9.60;99.90;;;;;;4814378;29;20049;-83
2022/09/28 07:49:04;;;;;;;106.32;12.82;;;9.70;99.90;;;;;;4845995;29;20400;-83
2022/09/28 07:51:30;;;;;;;20.73;9.02;;;9.70;99.90;;;;;;4844193;29;20104;-84
2022/09/28 07:53:56;;;;;;;23.92;9.77;;;9.80;99.90;;;;;;4862203;29;20048;-83
2022/09/28 07:56:22;;;;;;;25.40;8.90;;;10.00;99.90;;;;;;4846169;29;20409;-83
2022/09/28 07:58:48;;;;;;;21.08;8.98;;;9.80;99.90;;;;;;4861986;29;20120;-83
2022/09/28 08:01:15;;;;;;;14.88;8.27;;;9.80;99.90;;;;;;4862126;29;20232;-84
2022/09/28 08:03:46;;;;;;;25.00;8.50;;;9.90;99.90;;;;;;4848302;29;20135;-83
2022/09/28 08:06:13;;;;;;;29.65;8.52;;;9.60;99.90;;;;;;4855657;29;20053;-84
2022/09/28 08:08:43;;;;;;;15.93;8.00;;;9.90;99.90;;;;;;4855569;29;20040;-83
2022/09/28 08:11:11;;;;;;;15.07;8.30;;;10.00;99.90;;;;;;4862456;29;20045;-84
2022/09/28 08:13:37;;;;;;;14.70;8.15;;;10.10;99.90;;;;;;4841719;29;20545;-84
2022/09/28 08:16:04;;;;;;;14.77;9.07;;;10.10;99.90;;;;;;4848795;29;20033;-83
2022/09/28 08:18:30;;;;;;;14.55;8.55;;;10.20;99.90;;;;;;4830691;29;20144;-83
2022/09/28 08:23:40;;;;;;;14.07;8.60;;;10.30;99.90;;;;;;4841703;29;20053;-83
2022/09/28 08:26:07;;;;;;;11.40;8.00;;;10.50;99.90;;;;;;4880948;29;20093;-84
2022/09/28 08:28:34;;;;;;;13.75;8.65;;;10.60;99.90;;;;;;4878795;29;20044;-83
2022/09/28 08:31:00;;;;;;;11.77;9.90;;;10.40;99.90;;;;;;4861649;29;20049;-84
2022/09/28 08:33:26;;;;;;;12.13;9.57;;;10.60;99.90;;;;;;4831640;29;20045;-84
2022/09/28 08:35:59;;;;;;;10.25;7.43;;;10.80;99.90;;;;;;4859574;29;20882;-84
2022/09/28 08:38:26;;;;;;;10.27;8.27;;;10.60;99.90;;;;;;4872214;29;20505;-84
2022/09/28 08:41:18;;;;;;;11.55;8.30;;;10.80;99.90;;;;;;4864998;29;20497;-83
2022/09/28 08:43:53;;;;;;;9.70;7.78;;;10.80;99.90;;;;;;4842420;29;20405;-83
2022/09/28 08:46:27;;;;;;;11.85;8.10;;;10.90;99.90;;;;;;4856845;29;20588;-83
2022/09/28 08:49:06;;;;;;;11.50;8.38;;;11.10;99.90;;;;;;4864887;29;20041;-83
2022/09/28 08:51:55;;;;;;;11.40;8.65;;;11.20;99.90;;;;;;4846244;29;20037;-84
2022/09/28 08:54:39;;;;;;;10.13;7.80;;;11.50;99.90;;;;;;4863174;29;20395;-84
2022/09/28 08:57:10;;;;;;;8.57;6.75;;;11.70;99.90;;;;;;4864306;29;20036;-84
2022/09/28 08:59:51;;;;;;;10.18;7.60;;;11.60;99.90;;;;;;4867008;29;20553;-84
2022/09/28 09:02:28;;;;;;;11.32;7.88;;;11.80;99.90;;;;;;4847949;29;20113;-82
2022/09/28 09:04:55;;;;;;;9.88;7.22;;;11.70;99.90;;;;;;4851135;29;20049;-83
2022/09/28 09:08:01;;;;;;;9.07;7.25;;;11.40;99.90;;;;;;4849879;29;20076;-84
2022/09/28 09:10:51;;;;;;;8.57;6.22;;;11.50;99.90;;;;;;4882740;29;20045;-83
2022/09/28 09:13:38;;;;;;;11.15;7.30;;;12.00;99.90;;;;;;4857811;29;20477;-83
2022/09/28 09:16:23;;;;;;;8.45;6.72;;;11.90;99.90;;;;;;4853027;29;20439;-83
2022/09/28 09:19:06;;;;;;;8.57;6.95;;;12.30;99.90;;;;;;4853799;29;20092;-84
2022/09/28 09:21:38;;;;;;;9.25;7.30;;;12.20;99.90;;;;;;4884884;29;20083;-84
2022/09/28 09:24:24;;;;;;;7.93;6.65;;;12.10;99.90;;;;;;4850080;29;20521;-83
2022/09/28 09:27:04;;;;;;;9.52;6.55;;;11.90;99.90;;;;;;4848789;29;20621;-84
2022/09/28 09:29:51;;;;;;;9.93;6.97;;;11.80;99.90;;;;;;4860665;29;20124;-83
2022/09/28 09:32:30;;;;;;;8.07;6.53;;;12.20;99.90;;;;;;4878574;29;20029;-83
2022/09/28 09:35:19;;;;;;;8.95;5.68;;;12.30;99.90;;;;;;4869084;29;20041;-84
2022/09/28 09:38:00;;;;;;;7.22;5.78;;;12.50;99.90;;;;;;4869243;29;20067;-84
2022/09/28 09:40:49;;;;;;;8.32;5.88;;;12.50;99.90;;;;;;4853414;29;20398;-84
2022/09/28 09:43:30;;;;;;;8.40;6.18;;;12.60;99.90;;;;;;4843780;29;20052;-84
2022/09/28 09:46:28;;;;;;;7.70;5.50;;;12.60;99.90;;;;;;4868828;29;20489;-84
2022/09/28 09:49:22;;;;;;;8.43;5.80;;;12.90;99.90;;;;;;4851669;29;20465;-83
2022/09/28 09:51:51;;;;;;;4.00;3.45;;;12.90;99.90;;;;;;4840241;29;20073;-83
2022/09/28 09:54:42;;;;;;;5.97;4.90;;;12.60;99.90;;;;;;4851517;29;20050;-84
2022/09/28 09:57:25;;;;;;;6.35;4.13;;;12.90;99.90;;;;;;4882278;29;20052;-84
2022/09/28 09:59:51;;;;;;;4.47;3.63;;;13.10;99.90;;;;;;4866665;29;20045;-84
2022/09/28 10:02:44;;;;;;;4.72;3.70;;;13.20;99.90;;;;;;4849155;29;20157;-84
2022/09/28 10:05:09;;;;;;;5.75;3.50;;;13.50;99.90;;;;;;4881646;29;20047;-84
2022/09/28 10:07:45;;;;;;;3.67;2.90;;;13.60;99.90;;;;;;4859747;29;20438;-84
2022/09/28 10:10:22;;;;;;;3.47;2.83;;;13.90;99.90;;;;;;4882282;29;20057;-84
2022/09/28 10:12:49;;;;;;;3.90;2.80;;;14.30;99.90;;;;;;4867532;29;20227;-83
2022/09/28 10:15:21;;;;;;;4.22;2.28;;;14.50;99.90;;;;;;4856709;29;20498;-84
2022/09/28 10:17:50;;;;;;;3.17;2.42;;;14.70;99.90;;;;;;4853014;29;20588;-84
2022/09/28 10:20:17;;;;;;;6.07;2.63;;;14.50;99.90;;;;;;4867451;29;20077;-84
2022/09/28 10:22:43;;;;;;;3.67;2.78;;;14.20;99.90;;;;;;4880732;29;20037;-84
2022/09/28 10:25:11;;;;;;;2.65;1.70;;;14.00;99.90;;;;;;4856487;29;20091;-84
2022/09/28 10:27:44;;;;;;;3.35;1.70;;;13.90;92.40;;;;;;4868208;29;20095;-84
2022/09/28 10:30:15;;;;;;;2.00;1.38;;;13.60;99.90;;;;;;4853364;29;20044;-84
2022/09/28 10:32:47;;;;;;;2.53;1.20;;;13.60;70.70;;;;;;4851435;29;20049;-84
2022/09/28 10:35:21;;;;;;;2.00;1.17;;;13.60;99.90;;;;;;4847811;29;20183;-84
2022/09/28 10:37:55;;;;;;;1.73;1.08;;;13.70;99.90;;;;;;4881817;29;20049;-84
2022/09/28 10:40:28;;;;;;;1.95;0.90;;;14.00;1.00;;;;;;4847963;29;20041;-83
2022/09/28 10:43:03;;;;;;;1.88;1.08;;;14.10;1.00;;;;;;4849363;29;20064;-83
2022/09/28 10:45:32;;;;;;;;;;;14.70;99.90;;;;;;4868084;29;20049;-84
2022/09/28 10:47:59;;;;;;;2.75;1.20;;;14.90;99.90;;;;;;4863302;29;19924;-84
2022/09/28 10:50:26;;;;;;;2.08;0.98;;;15.00;1.00;;;;;;4851364;29;20273;-84
2022/09/28 10:53:19;;;;;;;2.22;1.25;;;14.90;99.90;;;;;;4861499;29;20128;-84
2022/09/28 10:56:00;;;;;;;2.03;1.30;;;15.20;99.90;;;;;;4846135;29;20040;-84
2022/09/28 10:58:27;;;;;;;2.65;1.10;;;15.40;99.90;;;;;;4867519;29;20045;-84
2022/09/28 11:01:01;;;;;;;1.52;1.20;;;15.70;1.00;;;;;;4864401;29;20703;-84
2022/09/28 11:03:28;;;;;;;2.33;1.02;;;15.20;23.10;;;;;;4835243;29;20045;-84
2022/09/28 11:05:58;;;;;;;1.52;0.93;;;15.10;99.90;;;;;;4852068;29;20044;-83
2022/09/28 11:08:32;;;;;;;1.70;0.80;;;14.60;99.90;;;;;;4858280;29;20041;-84
2022/09/28 11:11:11;;;;;;;1.47;0.80;;;14.50;99.90;;;;;;4854776;29;20052;-83
2022/09/28 11:13:51;;;;;;;1.35;0.70;;;14.30;99.90;;;;;;4852116;29;20285;-84
2022/09/28 11:16:27;;;;;;;0.75;0.57;;;14.20;99.90;;;;;;4852990;29;20120;-84
2022/09/28 11:18:55;;;;;;;0.90;0.60;;;14.80;99.90;;;;;;4867038;29;20036;-84
2022/09/28 11:21:27;;;;;;;1.55;0.45;;;14.90;99.90;;;;;;4852089;29;20037;-84
2022/09/28 11:24:00;;;;;;;1.92;0.47;;;14.70;87.90;;;;;;4849262;29;20044;-83
2022/09/28 11:26:33;;;;;;;0.95;0.47;;;14.80;25.60;;;;;;4861500;29;20040;-83
2022/09/28 11:29:02;;;;;;;2.13;0.80;;;15.40;1.00;;;;;;4869344;29;20455;-84
2022/09/28 11:31:30;;;;;;;1.83;0.75;;;16.00;99.90;;;;;;4862737;29;20045;-85
2022/09/28 11:34:25;;;;;;;1.70;0.50;;;16.10;99.90;;;;;;4865908;29;20063;-85
2022/09/28 11:36:50;;;;;;;1.53;0.30;;;16.10;99.90;;;;;;4852156;29;20089;-84
2022/09/28 11:39:46;;;;;;;1.92;0.60;;;15.80;1.00;;;;;;4882572;29;20918;-84
2022/09/28 11:42:29;;;;;;;0.73;0.40;;;15.60;99.90;;;;;;4878483;29;20048;-83
2022/09/28 11:45:23;;;;;;;1.15;0.40;;;15.50;99.90;;;;;;4862616;29;20048;-83
2022/09/28 11:48:07;;;;;;;2.60;0.60;;;15.40;99.90;;;;;;4840322;29;20053;-83
2022/09/28 11:51:04;;;;;;;0.43;0.30;;;16.30;99.90;;;;;;4848945;29;20290;-83
2022/09/28 11:53:41;;;;;;;2.13;0.70;;;17.00;99.90;;;;;;4842840;29;20073;-83
2022/09/28 11:56:09;;;;;;;1.65;0.70;;;16.70;99.90;;;;;;4842899;29;20082;-83
2022/09/28 11:58:45;;;;;;;0.60;0.50;;;16.20;99.90;;;;;;4865112;29;20124;-83
2022/09/28 12:01:21;;;;;;;0.55;0.55;;;16.20;99.90;;;;;;4846731;29;20048;-83
2022/09/28 12:03:56;;;;;;;1.55;1.00;;;16.40;99.90;;;;;;4847991;29;20053;-83
2022/09/28 12:06:30;;;;;;;1.65;0.65;;;15.50;99.90;;;;;;4833157;29;20076;-82
2022/09/28 12:09:05;;;;;;;0.93;0.60;;;15.70;52.10;;;;;;4824971;29;20077;-82
2022/09/28 12:11:37;;;;;;;1.98;0.63;;;15.60;99.90;;;;;;4845993;29;20294;-82
2022/09/28 12:14:09;;;;;;;7.95;0.82;;;15.40;99.90;;;;;;4826616;29;20041;-83
2022/09/28 12:16:49;;;;;;;0.45;0.40;;;15.70;17.50;;;;;;4832154;29;20614;-83
2022/09/28 12:19:32;;;;;;;1.08;0.40;;;15.80;99.90;;;;;;4826002;29;20048;-83
2022/09/28 12:22:21;;;;;;;0.65;0.35;;;15.50;99.90;;;;;;4851375;29;20657;-82
2022/09/28 12:24:55;;;;;;;1.27;0.40;;;15.30;99.90;;;;;;4841113;29;20562;-82
2022/09/28 12:27:31;;;;;;;0.85;0.43;;;15.40;99.90;;;;;;4862970;29;20053;-82
2022/09/28 12:30:18;;;;;;;2.20;0.30;;;14.70;99.90;;;;;;4847447;29;20508;-82
2022/09/28 12:32:59;;;;;;;2.17;0.40;;;14.60;99.90;;;;;;4816839;29;20049;-82
2022/09/28 12:35:43;;;;;;;0.93;0.50;;;14.70;3.70;;;;;;4822407;29;20517;-82
2022/09/28 12:38:33;;;;;;;1.25;0.13;;;14.70;99.90;;;;;;4834511;29;20494;-82
2022/09/28 12:41:16;;;;;;;0.35;0.30;;;15.20;24.00;;;;;;4849830;29;20532;-83
2022/09/28 12:43:57;;;;;;;1.33;0.40;;;15.30;99.90;;;;;;4864443;29;20485;-83
2022/09/28 12:46:41;;;;;;;1.38;0.40;;;15.30;99.90;;;;;;4846762;29;20087;-82
2022/09/28 12:49:28;;;;;;;1.00;0.50;;;15.60;99.90;;;;;;4845440;29;20137;-82
2022/09/28 12:51:59;;;;;;;1.35;0.63;;;15.40;1.00;;;;;;4834281;29;20329;-82
2022/09/28 12:54:56;;;;;;;2.40;0.70;;;15.40;1.00;;;;;;4830895;29;20049;-82
2022/09/28 12:57:52;;;;;;;1.08;0.32;;;15.50;1.00;;;;;;4831243;29;20057;-82
2022/09/28 13:00:23;;;;;;;3.00;0.40;;;15.00;99.90;;;;;;4833594;29;20701;-82
2022/09/28 13:02:57;;;;;;;2.05;0.80;;;15.00;99.90;;;;;;4829374;29;20651;-82
2022/09/28 13:05:26;;;;;;;1.40;0.60;;;14.70;1.00;;;;;;4846354;29;20137;-82
2022/09/28 13:08:13;;;;;;;0.60;0.40;;;14.70;99.90;;;;;;4847515;29;20049;-82
2022/09/28 13:11:05;;;;;;;1.83;0.50;;;14.40;86.40;;;;;;4852269;29;20764;-82
2022/09/28 13:14:10;;;;;;;0.70;0.40;;;14.10;99.90;;;;;;4836885;29;20612;-81
2022/09/28 13:16:54;;;;;;;1.38;0.32;;;13.70;99.90;;;;;;4845486;29;20096;-83